Boxy Lady — 9HYU9 — position and weather

sailwx.info

Track history (hours):
 
Tides and Currents Weather Stations Pressure Air Temp Water Temp Dewpoint Dewpoint Depression Visibility Wind Speed Wind Dir Waves Ship Positions

Boxy Lady

Last reported at 2017-Nov-20 00:18 UTC. Time now 2017-Nov-22 14:51 UTC.
Position N 36°06' W 005°25'.

Length 159 m; draft 8.3 m.

Type: Ship. MMSI: 249715000.

Date/timePositionNaut miles runAvg speedWind from/ knotsBaromVisibWave heightAir tempDewpointWater temp
2017-Nov-20 00:18N 36°06' W 005°25'0 0.1
2017-Nov-20 00:00N 36°06' W 005°25'0 0.0
2017-Nov-19 23:30N 36°06' W 005°25'0 0.0
2017-Nov-19 22:39N 36°06' W 005°25'0 0.1
2017-Nov-19 22:30N 36°06' W 005°25'0 0.0
2017-Nov-19 22:00N 36°06' W 005°25'0 0.0
2017-Nov-19 21:18N 36°06' W 005°25'0 0.0
2017-Nov-19 19:48N 36°06' W 005°25'0 0.0
2017-Nov-19 19:24N 36°06' W 005°25'0 0.0
2017-Nov-19 17:30N 36°06' W 005°25'0 0.3
2017-Nov-19 16:49N 36°06' W 005°25'2 0.5
2017-Nov-19 13:22N 36°08' W 005°25'2 0.3
2017-Nov-19 06:30N 36°10' W 005°26'2 0.3
2017-Nov-19 01:35N 36°08' W 005°26'0 0.0
2017-Nov-19 01:11N 36°08' W 005°26'0 0.0
2017-Nov-18 23:23N 36°08' W 005°26'0 0.0
2017-Nov-18 22:08N 36°08' W 005°26'0 0.0
2017-Nov-18 21:56N 36°08' W 005°26'0 0.0
2017-Nov-18 21:29N 36°08' W 005°26'0 0.0
2017-Nov-18 20:59N 36°08' W 005°26'0 0.0
2017-Nov-18 20:29N 36°08' W 005°26'0 0.0
2017-Nov-18 14:35N 36°08' W 005°26'0 0.0
2017-Nov-18 03:51N 36°08' W 005°26'1 1.0
2017-Nov-18 02:30N 36°09' W 005°26'0 0.0
2017-Nov-18 01:51N 36°09' W 005°26'0 0.0
2017-Nov-17 23:30N 36°09' W 005°26'0 0.0
2017-Nov-17 06:09N 36°09' W 005°26'0 0.0
2017-Nov-17 01:21N 36°10' W 005°26'0 0.1
2017-Nov-17 00:57N 36°09' W 005°26'0 0.0
2017-Nov-17 00:30N 36°09' W 005°26'0 0.0
2017-Nov-17 00:00N 36°10' W 005°26'0 0.0
2017-Nov-16 23:24N 36°09' W 005°26'0 0.1
2017-Nov-16 22:47N 36°09' W 005°26'1 3.4
2017-Nov-16 22:30N 36°09' W 005°25'2 4.8
2017-Nov-16 22:00N 36°07' W 005°23'5 9.1
2017-Nov-16 21:30N 36°04' W 005°20'1 3.0
2017-Nov-16 21:01N 36°03' W 005°18'1 1.2
2017-Nov-16 20:31N 36°03' W 005°18'1 1.4
2017-Nov-16 20:00N 36°03' W 005°19'1 1.5
2017-Nov-16 19:30N 36°03' W 005°20'1 1.7
2017-Nov-16 19:00N 36°03' W 005°21'1 1.6
2017-Nov-16 18:30N 36°03' W 005°22'2 4.7
2017-Nov-16 18:00N 36°01' W 005°23'612.3
2017-Nov-16 17:31N 35°58' W 005°30'21410.9
2017-Nov-15 21:55N 37°12' W 009°40'811.8
2017-Nov-15 21:17N 37°19' W 009°42'1011.9
2017-Nov-15 20:27N 37°29' W 009°44'512.0
2017-Nov-15 20:00N 37°34' W 009°46'812.3
2017-Nov-15 19:22N 37°42' W 009°48'412.3
2017-Nov-15 19:00N 37°46' W 009°49'812.0
2017-Nov-15 18:19N 37°54' W 009°52'412.2
2017-Nov-15 18:00N 37°58' W 009°53'612.5
2017-Nov-15 17:30N 38°04' W 009°54'612.2
2017-Nov-15 17:01N 38°10' W 009°56'612.3
2017-Nov-15 16:30N 38°16' W 009°57'612.2
2017-Nov-15 16:00N 38°22' W 009°59'612.0
2017-Nov-15 15:30N 38°28' W 010°01'611.5
2017-Nov-15 15:00N 38°33' W 010°03'611.6
2017-Nov-15 14:31N 38°39' W 010°04'611.5
2017-Nov-15 14:01N 38°45' W 010°05'611.6
2017-Nov-15 13:30N 38°50' W 010°05'611.4
2017-Nov-15 13:00N 38°56' W 010°05'611.6
2017-Nov-15 12:31N 39°02' W 010°02'611.3
2017-Nov-15 12:01N 39°07' W 010°01'611.6
2017-Nov-15 11:31N 39°13' W 009°59'611.8
2017-Nov-15 11:00N 39°18' W 009°57'612.1
2017-Nov-15 10:30N 39°24' W 009°56'612.2
2017-Nov-15 10:01N 39°30' W 009°54'812.1
2017-Nov-15 09:22N 39°38' W 009°51'411.9
2017-Nov-15 09:01N 39°42' W 009°49'  
2017-Nov-11 18:50N 39°51' W 009°46'410.6
2017-Nov-11 18:28N 39°47' W 009°47'2510.3
2017-Nov-11 16:04N 39°22' W 009°52'110.3
2017-Nov-11 16:00N 39°22' W 009°52'510.3
2017-Nov-11 15:30N 39°17' W 009°52'510.4
2017-Nov-11 15:00N 39°11' W 009°51'510.6
2017-Nov-11 14:30N 39°06' W 009°52'510.7
2017-Nov-11 14:00N 39°01' W 009°52'510.3
2017-Nov-11 13:30N 38°56' W 009°52'510.5
2017-Nov-11 13:00N 38°50' W 009°52'510.5
2017-Nov-11 12:30N 38°45' W 009°52'510.4
2017-Nov-11 12:00N 38°40' W 009°51'510.1
2017-Nov-11 11:30N 38°35' W 009°49'510.4
2017-Nov-11 11:00N 38°30' W 009°48'510.2
2017-Nov-11 10:30N 38°25' W 009°46'510.4
2017-Nov-11 10:00N 38°20' W 009°45'510.4
2017-Nov-11 09:30N 38°15' W 009°43'510.1
2017-Nov-11 09:00N 38°10' W 009°42'611.1
2017-Nov-11 08:30N 38°05' W 009°40'713.4
2017-Nov-11 08:00N 37°58' W 009°38'913.5
2017-Nov-11 07:21N 37°50' W 009°36'411.2
2017-Nov-11 07:00N 37°46' W 009°34'611.1
2017-Nov-11 06:31N 37°41' W 009°32'611.4
2017-Nov-11 06:01N 37°35' W 009°30'611.0
2017-Nov-11 05:30N 37°30' W 009°28'510.5
2017-Nov-11 05:00N 37°25' W 009°26'510.6
2017-Nov-11 04:31N 37°20' W 009°25'510.9
2017-Nov-11 04:01N 37°14' W 009°25'611.1
2017-Nov-11 03:31N 37°09' W 009°24'610.9
2017-Nov-11 03:00N 37°03' W 009°22'19310.8
2017-Nov-10 09:06N 35°58' W 005°36'1 8.3
2017-Nov-10 09:00N 35°58' W 005°35'5 9.4
2017-Nov-10 08:31N 35°60' W 005°29'510.4
2017-Nov-10 08:01N 36°03' W 005°24'5 3.5
2017-Nov-10 06:31N 36°08' W 005°25'0 0.0
2017-Nov-10 06:28N 36°08' W 005°25'0 0.0
2017-Nov-10 04:28N 36°08' W 005°25'0 0.0
2017-Nov-10 03:58N 36°08' W 005°25'0 0.0
2017-Nov-10 03:28N 36°08' W 005°25'0 0.0
2017-Nov-10 02:58N 36°08' W 005°25'0 0.0
2017-Nov-10 02:28N 36°08' W 005°25'0 0.1
2017-Nov-10 02:00N 36°08' W 005°25'1 0.7
2017-Nov-10 00:55N 36°08' W 005°24'0 0.3
2017-Nov-10 00:30N 36°08' W 005°25'  
Track history (hours):
 
Tides and Currents Weather Stations Pressure Air Temp Water Temp Dewpoint Dewpoint Depression Visibility Wind Speed Wind Dir Waves Ship Positions

Boxy Lady

Last reported at 2017-Nov-20 00:18 UTC. Time now 2017-Nov-22 14:51 UTC.
Position N 36°06' W 005°25'.

Length 159 m; draft 8.3 m.

Type: Ship. MMSI: 249715000.

Date/timePositionNaut miles runAvg speedWind from/ knotsBaromVisibWave heightAir tempDewpointWater temp
2017-Nov-20 00:18N 36°06' W 005°25'0 0.1
2017-Nov-20 00:00N 36°06' W 005°25'0 0.0
2017-Nov-19 23:30N 36°06' W 005°25'0 0.0
2017-Nov-19 22:39N 36°06' W 005°25'0 0.1
2017-Nov-19 22:30N 36°06' W 005°25'0 0.0
2017-Nov-19 22:00N 36°06' W 005°25'0 0.0
2017-Nov-19 21:18N 36°06' W 005°25'0 0.0
2017-Nov-19 19:48N 36°06' W 005°25'0 0.0
2017-Nov-19 19:24N 36°06' W 005°25'0 0.0
2017-Nov-19 17:30N 36°06' W 005°25'0 0.3
2017-Nov-19 16:49N 36°06' W 005°25'2 0.5
2017-Nov-19 13:22N 36°08' W 005°25'2 0.3
2017-Nov-19 06:30N 36°10' W 005°26'2 0.3
2017-Nov-19 01:35N 36°08' W 005°26'0 0.0
2017-Nov-19 01:11N 36°08' W 005°26'0 0.0
2017-Nov-18 23:23N 36°08' W 005°26'0 0.0
2017-Nov-18 22:08N 36°08' W 005°26'0 0.0
2017-Nov-18 21:56N 36°08' W 005°26'0 0.0
2017-Nov-18 21:29N 36°08' W 005°26'0 0.0
2017-Nov-18 20:59N 36°08' W 005°26'0 0.0
2017-Nov-18 20:29N 36°08' W 005°26'0 0.0
2017-Nov-18 14:35N 36°08' W 005°26'0 0.0
2017-Nov-18 03:51N 36°08' W 005°26'1 1.0
2017-Nov-18 02:30N 36°09' W 005°26'0 0.0
2017-Nov-18 01:51N 36°09' W 005°26'0 0.0
2017-Nov-17 23:30N 36°09' W 005°26'0 0.0
2017-Nov-17 06:09N 36°09' W 005°26'0 0.0
2017-Nov-17 01:21N 36°10' W 005°26'0 0.1
2017-Nov-17 00:57N 36°09' W 005°26'0 0.0
2017-Nov-17 00:30N 36°09' W 005°26'0 0.0
2017-Nov-17 00:00N 36°10' W 005°26'0 0.0
2017-Nov-16 23:24N 36°09' W 005°26'0 0.1
2017-Nov-16 22:47N 36°09' W 005°26'1 3.4
2017-Nov-16 22:30N 36°09' W 005°25'2 4.8
2017-Nov-16 22:00N 36°07' W 005°23'5 9.1
2017-Nov-16 21:30N 36°04' W 005°20'1 3.0
2017-Nov-16 21:01N 36°03' W 005°18'1 1.2
2017-Nov-16 20:31N 36°03' W 005°18'1 1.4
2017-Nov-16 20:00N 36°03' W 005°19'1 1.5
2017-Nov-16 19:30N 36°03' W 005°20'1 1.7
2017-Nov-16 19:00N 36°03' W 005°21'1 1.6
2017-Nov-16 18:30N 36°03' W 005°22'2 4.7
2017-Nov-16 18:00N 36°01' W 005°23'612.3
2017-Nov-16 17:31N 35°58' W 005°30'21410.9
2017-Nov-15 21:55N 37°12' W 009°40'811.8
2017-Nov-15 21:17N 37°19' W 009°42'1011.9
2017-Nov-15 20:27N 37°29' W 009°44'512.0
2017-Nov-15 20:00N 37°34' W 009°46'812.3
2017-Nov-15 19:22N 37°42' W 009°48'412.3
2017-Nov-15 19:00N 37°46' W 009°49'812.0
2017-Nov-15 18:19N 37°54' W 009°52'412.2
2017-Nov-15 18:00N 37°58' W 009°53'612.5
2017-Nov-15 17:30N 38°04' W 009°54'612.2
2017-Nov-15 17:01N 38°10' W 009°56'612.3
2017-Nov-15 16:30N 38°16' W 009°57'612.2
2017-Nov-15 16:00N 38°22' W 009°59'612.0
2017-Nov-15 15:30N 38°28' W 010°01'611.5
2017-Nov-15 15:00N 38°33' W 010°03'611.6
2017-Nov-15 14:31N 38°39' W 010°04'611.5
2017-Nov-15 14:01N 38°45' W 010°05'611.6
2017-Nov-15 13:30N 38°50' W 010°05'611.4
2017-Nov-15 13:00N 38°56' W 010°05'611.6
2017-Nov-15 12:31N 39°02' W 010°02'611.3
2017-Nov-15 12:01N 39°07' W 010°01'611.6
2017-Nov-15 11:31N 39°13' W 009°59'611.8
2017-Nov-15 11:00N 39°18' W 009°57'612.1
2017-Nov-15 10:30N 39°24' W 009°56'612.2
2017-Nov-15 10:01N 39°30' W 009°54'812.1
2017-Nov-15 09:22N 39°38' W 009°51'411.9
2017-Nov-15 09:01N 39°42' W 009°49'  
2017-Nov-11 18:50N 39°51' W 009°46'410.6
2017-Nov-11 18:28N 39°47' W 009°47'2510.3
2017-Nov-11 16:04N 39°22' W 009°52'110.3
2017-Nov-11 16:00N 39°22' W 009°52'510.3
2017-Nov-11 15:30N 39°17' W 009°52'510.4
2017-Nov-11 15:00N 39°11' W 009°51'510.6
2017-Nov-11 14:30N 39°06' W 009°52'510.7
2017-Nov-11 14:00N 39°01' W 009°52'510.3
2017-Nov-11 13:30N 38°56' W 009°52'510.5
2017-Nov-11 13:00N 38°50' W 009°52'510.5
2017-Nov-11 12:30N 38°45' W 009°52'510.4
2017-Nov-11 12:00N 38°40' W 009°51'510.1
2017-Nov-11 11:30N 38°35' W 009°49'510.4
2017-Nov-11 11:00N 38°30' W 009°48'510.2
2017-Nov-11 10:30N 38°25' W 009°46'510.4
2017-Nov-11 10:00N 38°20' W 009°45'510.4
2017-Nov-11 09:30N 38°15' W 009°43'510.1
2017-Nov-11 09:00N 38°10' W 009°42'611.1
2017-Nov-11 08:30N 38°05' W 009°40'713.4
2017-Nov-11 08:00N 37°58' W 009°38'913.5
2017-Nov-11 07:21N 37°50' W 009°36'411.2
2017-Nov-11 07:00N 37°46' W 009°34'611.1
2017-Nov-11 06:31N 37°41' W 009°32'611.4
2017-Nov-11 06:01N 37°35' W 009°30'611.0
2017-Nov-11 05:30N 37°30' W 009°28'510.5
2017-Nov-11 05:00N 37°25' W 009°26'510.6
2017-Nov-11 04:31N 37°20' W 009°25'510.9
2017-Nov-11 04:01N 37°14' W 009°25'611.1
2017-Nov-11 03:31N 37°09' W 009°24'610.9
2017-Nov-11 03:00N 37°03' W 009°22'19310.8
2017-Nov-10 09:06N 35°58' W 005°36'1 8.3
2017-Nov-10 09:00N 35°58' W 005°35'5 9.4
2017-Nov-10 08:31N 35°60' W 005°29'510.4
2017-Nov-10 08:01N 36°03' W 005°24'5 3.5
2017-Nov-10 06:31N 36°08' W 005°25'0 0.0
2017-Nov-10 06:28N 36°08' W 005°25'0 0.0
2017-Nov-10 04:28N 36°08' W 005°25'0 0.0
2017-Nov-10 03:58N 36°08' W 005°25'0 0.0
2017-Nov-10 03:28N 36°08' W 005°25'0 0.0
2017-Nov-10 02:58N 36°08' W 005°25'0 0.0
2017-Nov-10 02:28N 36°08' W 005°25'0 0.1
2017-Nov-10 02:00N 36°08' W 005°25'1 0.7
2017-Nov-10 00:55N 36°08' W 005°24'0 0.3
2017-Nov-10 00:30N 36°08' W 005°25'  

Dump ship's entire track history